Time;durP1;ratioP1;P1;durP2;ratioP2;P2;SDS_P1;SDS_P2;PMS_P1;PMS_P2;Temp;Humidity;BMP_temperature;BMP_pressure;BME280_temperature;BME280_humidity;BME280_pressure;Samples;Min_cycle;Max_cycle;Signal;HPM_P1;HPM_P2
2021/08/06 00:00:32;;;;;;;2.58;1.85;;;;;;;30.89;48.95;100819.13;5099851;27;69130;-31
2021/08/06 00:03:03;;;;;;;7.10;2.15;;;;;;;30.99;49.77;100830.28;5116659;27;66083;-29
2021/08/06 00:05:33;;;;;;;2.28;1.80;;;;;;;30.97;49.73;100832.38;5110944;27;72432;-32
2021/08/06 00:08:04;;;;;;;3.90;2.53;;;;;;;31.05;51.59;100845.63;5112539;27;66085;-33
2021/08/06 00:10:34;;;;;;;7.53;2.45;;;;;;;31.08;52.10;100839.78;5119795;27;69205;-31
2021/08/06 00:13:04;;;;;;;3.80;2.15;;;;;;;31.14;52.04;100855.13;5111629;27;66093;-32
2021/08/06 00:15:35;;;;;;;8.38;2.33;;;;;;;31.14;51.78;100859.72;5116960;27;69598;-32
2021/08/06 00:18:06;;;;;;;3.13;2.30;;;;;;;30.90;51.97;100818.06;5113335;27;66898;-34
2021/08/06 00:20:37;;;;;;;4.47;1.98;;;;;;;31.22;52.03;100866.75;5114350;27;70997;-32
2021/08/06 00:23:08;;;;;;;9.32;2.08;;;;;;;31.25;52.33;100877.13;5116876;27;65402;-33
2021/08/06 00:25:38;;;;;;;9.25;2.20;;;;;;;31.26;52.25;100873.38;5111687;27;69465;-36
2021/08/06 00:28:15;;;;;;;6.38;2.55;;;;;;;31.22;53.05;100866.75;5111526;27;65935;-32
2021/08/06 00:30:45;;;;;;;10.02;2.70;;;;;;;31.35;54.07;100893.72;5110847;27;70440;-33
2021/08/06 00:33:15;;;;;;;9.48;2.45;;;;;;;31.34;55.11;100881.22;5115044;27;65234;-33
2021/08/06 00:35:49;;;;;;;6.00;2.65;;;;;;;31.37;56.45;100891.63;5096204;27;69939;-31
2021/08/06 00:38:21;;;;;;;17.23;3.53;;;;;;;31.31;57.03;100887.91;5113986;27;67353;-32
2021/08/06 00:40:58;;;;;;;6.20;3.35;;;;;;;31.36;57.73;100895.41;5102282;27;70105;-32
2021/08/06 00:43:32;;;;;;;8.38;3.65;;;;;;;31.37;58.87;100902.47;5092181;27;66909;-32
2021/08/06 00:46:16;;;;;;;11.23;4.55;;;;;;;31.35;60.04;100904.56;5089480;27;70250;-31
2021/08/06 00:48:50;;;;;;;13.60;6.18;;;;;;;31.35;60.41;100910.00;5099950;27;66208;-33
2021/08/06 00:51:21;;;;;;;;;;;;;;;31.24;63.09;100916.16;5113658;27;70165;-31
2021/08/06 00:53:56;;;;;;;13.38;5.78;;;;;;;31.39;61.91;100916.66;5114070;27;65856;-31
2021/08/06 00:56:47;;;;;;;14.90;6.10;;;;;;;31.44;61.69;100907.84;5109472;27;69419;-31
2021/08/06 00:59:18;;;;;;;10.32;5.57;;;;;;;31.33;62.91;100914.81;5112351;27;66225;-29
2021/08/06 01:02:28;;;;;;;17.27;5.47;;;;;;;31.03;64.03;100890.25;5104211;27;69174;-29
2021/08/06 01:05:12;;;;;;;9.48;4.82;;;;;;;30.95;63.78;100875.09;5108691;27;66038;-30
2021/08/06 01:07:50;;;;;;;10.27;4.45;;;;;;;31.27;64.16;100926.53;5106617;27;69858;-30
2021/08/06 01:10:27;;;;;;;16.83;4.47;;;;;;;30.92;62.86;100867.41;5108409;27;65925;-29
2021/08/06 01:13:08;;;;;;;13.82;4.97;;;;;;;31.28;64.29;100933.59;5104328;27;71017;-30
2021/08/06 01:15:42;;;;;;;11.63;4.40;;;;;;;30.97;63.75;100881.13;5105148;27;66720;-30
2021/08/06 01:18:43;;;;;;;9.55;4.45;;;;;;;31.04;63.35;100891.94;5093728;27;70005;-30
2021/08/06 01:21:23;;;;;;;10.30;4.68;;;;;;;31.35;63.56;100932.50;5109780;27;66241;-30
2021/08/06 01:23:57;;;;;;;7.07;4.43;;;;;;;31.06;64.18;100885.22;5106648;27;70244;-30
2021/08/06 01:26:30;;;;;;;12.52;3.40;;;;;;;31.35;63.35;100923.53;5096849;27;66088;-30
2021/08/06 01:29:07;;;;;;;6.65;3.40;;;;;;;31.44;63.30;100933.06;5095990;27;69929;-30
2021/08/06 01:31:47;;;;;;;13.73;4.03;;;;;;;31.46;63.39;100939.13;5078097;27;66135;-31
2021/08/06 01:34:22;;;;;;;8.38;3.38;;;;;;;31.51;63.74;100942.00;5091248;27;69715;-31
2021/08/06 01:36:58;;;;;;;8.18;3.35;;;;;;;31.53;63.67;100936.31;5102180;27;66718;-30
2021/08/06 01:39:41;;;;;;;8.95;3.97;;;;;;;31.53;63.19;100939.03;5090213;27;70245;-31
2021/08/06 01:42:52;;;;;;;10.02;3.78;;;;;;;30.96;64.25;100846.97;5092788;27;66824;-30
2021/08/06 01:45:32;;;;;;;6.13;3.50;;;;;;;31.61;63.60;100938.75;5095698;27;70527;-31
2021/08/06 01:48:13;;;;;;;13.02;3.80;;;;;;;31.60;63.37;100923.53;5097180;27;65323;-33
2021/08/06 01:50:48;;;;;;;9.07;3.58;;;;;;;31.33;63.03;100858.72;5095152;27;70057;-30
2021/08/06 01:53:29;;;;;;;8.00;3.55;;;;;;;31.65;63.14;100904.72;5098327;27;66414;-33
2021/08/06 01:56:27;;;;;;;8.13;3.28;;;;;;;31.67;62.80;100901.78;5030904;28;70187;-31
2021/08/06 01:59:01;;;;;;;9.00;3.47;;;;;;;31.46;63.00;100865.91;4995511;28;66463;-31
2021/08/06 02:01:45;;;;;;;5.70;3.38;;;;;;;31.75;63.02;100909.63;5012414;28;70491;-33
2021/08/06 02:04:20;;;;;;;7.50;4.00;;;;;;;31.80;63.38;100907.06;5014478;28;66050;-35
2021/08/06 02:07:03;;;;;;;5.90;3.50;;;;;;;31.85;62.76;100907.22;5017224;28;69346;-31
2021/08/06 02:09:38;;;;;;;11.88;3.65;;;;;;;31.79;62.90;100899.97;5033447;28;66482;-31
2021/08/06 02:12:21;;;;;;;7.68;3.88;;;;;;;31.83;63.47;100912.84;5035008;28;70478;-31
2021/08/06 02:15:14;;;;;;;7.93;4.70;;;;;;;31.86;63.46;100911.56;5013541;28;65720;-32
2021/08/06 02:17:51;;;;;;;5.85;3.80;;;;;;;31.83;63.35;100899.28;5035875;28;70560;-31
2021/08/06 02:20:48;;;;;;;5.32;3.28;;;;;;;31.91;62.94;100894.63;5019295;28;66945;-30
2021/08/06 02:23:27;;;;;;;7.93;3.15;;;;;;;32.01;63.13;100903.06;5017197;28;69010;-32
2021/08/06 02:26:03;;;;;;;8.23;2.95;;;;;;;32.02;62.81;100899.31;5003381;28;66302;-30
2021/08/06 02:28:35;;;;;;;8.50;3.15;;;;;;;32.06;62.54;100897.78;5035832;28;69855;-34
2021/08/06 02:31:29;;;;;;;6.55;2.60;;;;;;;32.10;63.09;100887.34;5028074;28;65396;-30
2021/08/06 02:34:02;;;;;;;5.43;3.50;;;;;;;32.14;62.58;100885.81;5034028;28;69089;-34
2021/08/06 02:36:39;;;;;;;4.28;2.95;;;;;;;32.18;61.96;100887.00;5019233;28;65827;-29
2021/08/06 02:39:25;;;;;;;8.57;3.20;;;;;;;32.17;62.72;100879.91;5033097;28;70021;-31
2021/08/06 02:41:59;;;;;;;6.03;3.30;;;;;;;31.92;62.39;100823.88;5035446;28;66610;-31
2021/08/06 02:44:30;;;;;;;5.93;2.90;;;;;;;32.21;61.87;100862.13;5035532;28;69308;-31
2021/08/06 02:47:02;;;;;;;4.93;2.77;;;;;;;32.25;61.68;100866.03;5034769;28;66094;-29
2021/08/06 02:49:36;;;;;;;4.38;2.88;;;;;;;32.17;61.86;100852.78;5015117;28;69142;-29
2021/08/06 02:52:08;;;;;;;9.00;2.97;;;;;;;32.34;61.48;100880.09;5003296;28;65622;-34
2021/08/06 02:54:40;;;;;;;6.63;2.60;;;;;;;32.35;61.85;100877.16;5109887;27;70103;-30
2021/08/06 02:57:33;;;;;;;5.20;2.60;;;;;;;32.35;61.42;100866.31;5114117;27;65770;-30
2021/08/06 03:00:05;;;;;;;7.38;3.03;;;;;;;32.39;61.65;100867.50;5111683;27;70024;-30
2021/08/06 03:02:38;;;;;;;7.50;2.50;;;;;;;32.42;61.66;100872.44;5110336;27;65674;-28
2021/08/06 03:05:10;;;;;;;5.55;2.60;;;;;;;32.41;61.02;100865.38;5111019;27;70743;-30
2021/08/06 03:07:52;;;;;;;8.38;2.35;;;;;;;32.45;61.52;100863.03;5110425;27;65743;-29
2021/08/06 03:10:25;;;;;;;;;;;;;;;32.31;61.19;100870.53;5112131;27;70453;-29
2021/08/06 03:12:56;;;;;;;3.95;2.03;;;;;;;32.52;60.88;100866.50;5111502;27;67499;-30
2021/08/06 03:15:32;;;;;;;6.20;2.00;;;;;;;32.54;60.46;100869.81;5113927;27;70061;-31
2021/08/06 03:18:03;;;;;;;4.17;2.17;;;;;;;32.57;59.97;100872.06;5108710;27;66520;-29
2021/08/06 03:20:39;;;;;;;2.65;1.83;;;;;;;32.59;60.25;100871.81;5112192;27;69298;-29
2021/08/06 03:23:13;;;;;;;4.68;2.38;;;;;;;32.58;59.37;100867.47;5115805;27;66244;-30
2021/08/06 03:25:44;;;;;;;6.68;2.70;;;;;;;32.63;59.83;100878.47;5106471;27;69479;-30
2021/08/06 03:28:18;;;;;;;7.97;2.67;;;;;;;32.61;59.74;100877.88;5111290;27;66338;-31
2021/08/06 03:30:50;;;;;;;5.47;2.30;;;;;;;32.65;59.75;100876.31;5111068;27;69919;-31
2021/08/06 03:33:22;;;;;;;3.55;1.88;;;;;;;32.66;59.94;100876.09;5111542;27;65774;-30
2021/08/06 03:35:53;;;;;;;3.03;1.77;;;;;;;32.63;59.55;100871.13;5116233;27;70002;-32
2021/08/06 03:38:26;;;;;;;3.35;1.75;;;;;;;32.69;59.62;100872.09;5116258;27;65314;-31
2021/08/06 03:41:01;;;;;;;6.57;1.52;;;;;;;32.70;59.38;100863.69;5110136;27;70038;-30
2021/08/06 03:43:33;;;;;;;4.07;2.05;;;;;;;32.71;59.35;100850.97;5092831;27;66454;-29
2021/08/06 03:46:04;;;;;;;3.03;1.45;;;;;;;32.71;59.46;100850.97;5113303;27;70091;-29
2021/08/06 03:48:35;;;;;;;4.50;1.90;;;;;;;32.56;58.70;100823.41;5092533;27;66193;-30
2021/08/06 03:51:14;;;;;;;5.57;1.85;;;;;;;32.72;58.75;100833.59;5107843;27;69867;-30
2021/08/06 03:53:46;;;;;;;3.20;1.98;;;;;;;32.81;58.59;100847.66;5096664;27;66086;-32
2021/08/06 03:56:17;;;;;;;2.53;1.52;;;;;;;32.85;58.16;100855.13;5110265;27;70333;-30
2021/08/06 03:58:50;;;;;;;7.82;1.75;;;;;;;32.86;57.88;100840.47;5130739;27;66219;-29
2021/08/06 04:01:21;;;;;;;9.45;1.45;;;;;;;32.90;57.68;100841.66;5105891;27;70239;-30
2021/08/06 04:03:53;;;;;;;4.32;1.67;;;;;;;32.91;56.93;100831.63;5112121;27;65980;-30
2021/08/06 04:06:25;;;;;;;;;;;;;;;32.75;56.98;100824.97;5096477;27;70411;-30
2021/08/06 04:09:19;;;;;;;2.65;1.60;;;;;;;33.00;57.14;100815.81;5113008;27;65454;-30
2021/08/06 04:11:49;;;;;;;10.30;1.67;;;;;;;33.00;56.52;100807.66;5114376;27;70759;-29
2021/08/06 04:14:20;;;;;;;4.78;2.28;;;;;;;33.06;57.17;100801.28;5115312;27;65877;-30
2021/08/06 04:16:53;;;;;;;6.28;1.60;;;;;;;33.06;57.64;100804.00;5113325;27;70206;-29
2021/08/06 04:19:47;;;;;;;3.38;1.70;;;;;;;33.10;57.60;100802.47;5112613;27;65220;-31
2021/08/06 04:22:17;;;;;;;10.57;2.08;;;;;;;33.10;57.88;100780.72;5113681;27;70509;-30
2021/08/06 04:24:48;;;;;;;18.10;2.03;;;;;;;33.08;57.50;100782.84;5114626;27;65856;-31
2021/08/06 04:27:23;;;;;;;7.63;1.90;;;;;;;32.99;56.17;100800.53;5112441;27;69501;-30
2021/08/06 04:29:56;;;;;;;3.63;1.90;;;;;;;32.85;55.45;100798.06;5109456;27;66490;-30
2021/08/06 04:32:30;;;;;;;14.00;2.90;;;;;;;32.68;55.59;100784.38;5109962;27;69938;-30
2021/08/06 04:35:01;;;;;;;17.92;2.97;;;;;;;32.62;55.35;100806.19;5116631;27;65974;-31
2021/08/06 04:37:32;;;;;;;11.80;2.33;;;;;;;32.58;54.12;100810.44;5109599;27;69809;-29
2021/08/06 04:40:07;;;;;;;19.73;2.45;;;;;;;32.51;53.27;100804.28;5110510;27;65798;-31
2021/08/06 04:42:38;;;;;;;12.55;2.58;;;;;;;32.43;52.47;100808.97;5092184;27;70998;-30
2021/08/06 04:45:09;;;;;;;9.65;2.45;;;;;;;32.40;52.22;100809.44;5109706;27;66594;-30
2021/08/06 04:47:51;;;;;;;16.40;2.47;;;;;;;32.27;51.39;100786.03;5104075;27;69950;-30
2021/08/06 04:50:25;;;;;;;10.90;2.72;;;;;;;32.27;51.96;100804.19;5113347;27;66801;-30
2021/08/06 04:53:01;;;;;;;12.25;2.55;;;;;;;32.25;51.59;100798.16;5104567;27;69027;-30
2021/08/06 04:55:35;;;;;;;9.25;1.80;;;;;;;32.21;50.28;100794.28;5108464;27;65488;-31
2021/08/06 04:58:08;;;;;;;6.90;1.75;;;;;;;32.16;50.63;100791.44;5128500;27;70896;-31
2021/08/06 05:00:40;;;;;;;;;;;;;;;31.86;50.71;100780.53;5095908;27;66196;-29
2021/08/06 05:03:20;;;;;;;16.05;1.90;;;;;;;32.01;50.36;100773.69;5111789;27;70708;-30
2021/08/06 05:05:54;;;;;;;17.80;2.25;;;;;;;31.98;50.19;100768.72;5103571;27;66158;-30
2021/08/06 05:08:25;;;;;;;5.72;2.15;;;;;;;31.91;49.73;100759.84;5112361;27;69890;-30
2021/08/06 05:10:56;;;;;;;8.38;2.03;;;;;;;31.67;49.64;100725.50;5111977;27;67717;-30
2021/08/06 05:13:28;;;;;;;19.25;2.20;;;;;;;31.67;49.23;100717.38;5109364;27;70392;-30
2021/08/06 05:15:59;;;;;;;15.50;2.03;;;;;;;31.84;47.84;100750.91;5109567;27;66578;-30
2021/08/06 05:18:35;;;;;;;16.63;1.73;;;;;;;31.48;48.33;100670.50;5108989;27;69166;-30
2021/08/06 05:21:07;;;;;;;13.00;2.10;;;;;;;31.80;48.71;100728.03;5110737;27;66523;-31
2021/08/06 05:23:45;;;;;;;13.98;2.08;;;;;;;31.81;48.48;100735.09;5110607;27;70023;-32
2021/08/06 05:26:18;;;;;;;15.05;2.22;;;;;;;31.78;47.98;100724.72;5111559;27;66843;-32
2021/08/06 05:28:51;;;;;;;15.02;2.10;;;;;;;31.73;48.09;100711.88;5073956;27;71278;-35
2021/08/06 05:31:34;;;;;;;17.88;2.38;;;;;;;31.70;48.26;100701.47;5087631;27;66341;-31
2021/08/06 05:34:05;;;;;;;;;;;;;;;31.45;47.74;100700.78;5092754;27;69994;-31
2021/08/06 05:36:36;;;;;;;16.20;2.03;;;;;;;31.64;47.12;100688.00;5112626;27;67338;-31
2021/08/06 05:39:07;;;;;;;6.27;1.73;;;;;;;31.67;47.00;100684.84;5113743;27;70203;-34
2021/08/06 05:41:38;;;;;;;12.30;1.90;;;;;;;31.68;46.87;100683.75;5114131;27;65960;-31
2021/08/06 05:44:18;;;;;;;10.80;1.73;;;;;;;31.65;45.88;100687.78;5110110;27;69646;-31
2021/08/06 05:46:49;;;;;;;6.60;1.60;;;;;;;31.67;45.73;100679.41;5108549;27;65938;-30
2021/08/06 05:49:20;;;;;;;4.90;1.93;;;;;;;31.58;45.94;100666.19;5109876;27;70390;-30
2021/08/06 05:51:51;;;;;;;4.35;2.00;;;;;;;31.67;45.84;100668.56;5109138;27;66984;-29
2021/08/06 05:54:22;;;;;;;12.10;2.15;;;;;;;31.59;44.15;100665.13;5108992;27;72020;-29
2021/08/06 05:56:56;;;;;;;9.95;2.28;;;;;;;31.54;44.44;100647.91;5113205;27;65736;-30
2021/08/06 05:59:27;;;;;;;8.35;2.45;;;;;;;31.58;43.82;100649.09;5108209;27;70012;-30
2021/08/06 06:02:00;;;;;;;6.63;2.58;;;;;;;31.57;43.66;100656.41;5099635;27;66614;-30
2021/08/06 06:04:51;;;;;;;6.60;2.28;;;;;;;31.53;43.21;100654.38;5111033;27;68534;-30
2021/08/06 06:07:25;;;;;;;5.20;2.10;;;;;;;31.47;43.43;100642.56;5114632;27;66252;-31
2021/08/06 06:09:56;;;;;;;7.38;1.95;;;;;;;31.49;42.57;100651.31;5108802;27;69451;-33
2021/08/06 06:12:27;;;;;;;2.67;2.00;;;;;;;31.44;42.43;100648.44;5102023;27;66212;-33
2021/08/06 06:15:03;;;;;;;2.45;1.83;;;;;;;31.45;42.11;100639.25;5118471;27;70064;-34
2021/08/06 06:17:34;;;;;;;5.80;3.00;;;;;;;31.40;42.55;100641.84;5118029;27;65363;-32
2021/08/06 06:20:05;;;;;;;3.55;1.83;;;;;;;31.40;41.94;100647.28;5114768;27;69535;-29
2021/08/06 06:22:36;;;;;;;4.53;2.63;;;;;;;31.36;42.10;100637.91;5113931;27;66585;-29
2021/08/06 06:25:09;;;;;;;2.47;2.17;;;;;;;31.38;42.34;100649.38;5115682;27;70095;-30
2021/08/06 06:27:48;;;;;;;4.15;2.38;;;;;;;31.31;40.90;100648.59;5089913;27;65282;-32
2021/08/06 06:30:21;;;;;;;7.43;2.40;;;;;;;31.34;41.41;100643.56;5117556;27;70010;-30
2021/08/06 06:32:55;;;;;;;3.20;2.33;;;;;;;31.37;41.76;100636.84;5112722;27;65134;-29
2021/08/06 06:35:29;;;;;;;7.20;2.53;;;;;;;31.34;41.92;100631.88;5100058;27;69933;-31
2021/08/06 06:38:02;;;;;;;4.57;2.25;;;;;;;31.37;41.70;100631.44;5091559;27;65385;-33
2021/08/06 06:40:35;;;;;;;7.13;2.38;;;;;;;31.37;42.00;100636.84;5101555;27;70181;-30
2021/08/06 06:43:12;;;;;;;2.80;2.60;;;;;;;31.38;41.61;100633.09;5113985;27;66300;-31
2021/08/06 06:45:43;;;;;;;3.20;2.90;;;;;;;31.38;42.11;100622.28;5115398;27;71037;-31
2021/08/06 06:48:14;;;;;;;4.72;2.92;;;;;;;31.37;41.43;100609.75;5119084;27;66233;-30
2021/08/06 06:50:46;;;;;;;3.50;3.20;;;;;;;31.37;41.55;100615.16;5110535;27;69617;-30
2021/08/06 06:53:16;;;;;;;3.60;3.30;;;;;;;31.41;41.00;100583.84;5110493;27;66846;-31
2021/08/06 06:55:49;;;;;;;3.80;3.45;;;;;;;31.46;41.44;100605.69;5112217;27;69812;-31
2021/08/06 06:58:22;;;;;;;3.75;3.33;;;;;;;31.50;41.20;100601.44;5115372;27;66365;-31
2021/08/06 07:00:54;;;;;;;4.00;3.70;;;;;;;31.54;41.32;100589.09;5109182;27;69902;-31
2021/08/06 07:03:26;;;;;;;6.70;3.97;;;;;;;31.56;41.48;100589.66;5116738;27;65958;-31
2021/08/06 07:05:59;;;;;;;4.35;3.85;;;;;;;31.58;41.31;100590.25;5125163;27;70182;-31
2021/08/06 07:08:30;;;;;;;6.40;4.53;;;;;;;31.51;40.99;100583.28;5116626;27;66357;-31
2021/08/06 07:11:05;;;;;;;3.97;3.67;;;;;;;31.63;41.02;100594.19;5096186;27;70059;-31
2021/08/06 07:13:39;;;;;;;5.18;4.47;;;;;;;31.65;40.52;100586.63;5109847;27;66361;-31
2021/08/06 07:16:11;;;;;;;4.73;3.87;;;;;;;31.60;40.80;100580.03;5109884;27;69198;-31
2021/08/06 07:18:44;;;;;;;4.57;4.22;;;;;;;31.60;40.22;100581.91;5113287;27;65856;-32
2021/08/06 07:21:14;;;;;;;5.57;4.60;;;;;;;31.61;40.85;100573.53;5113957;27;69741;-31
2021/08/06 07:23:45;;;;;;;5.90;4.40;;;;;;;31.59;40.95;100572.94;5116606;27;65238;-32
2021/08/06 07:26:16;;;;;;;4.60;4.20;;;;;;;31.45;40.65;100552.50;5093059;27;69397;-32
2021/08/06 07:28:47;;;;;;;4.95;4.65;;;;;;;31.55;40.48;100563.63;5117059;27;66454;-34
2021/08/06 07:31:18;;;;;;;5.57;5.05;;;;;;;31.59;40.45;100567.53;5097226;27;70003;-31
2021/08/06 07:33:49;;;;;;;4.95;4.32;;;;;;;31.57;40.23;100572.34;5114767;27;65458;-30
2021/08/06 07:36:20;;;;;;;8.77;4.47;;;;;;;31.58;39.76;100567.75;5098034;27;70067;-30
2021/08/06 07:38:51;;;;;;;5.35;4.95;;;;;;;31.56;40.49;100565.25;5114540;27;66848;-32
2021/08/06 07:41:22;;;;;;;4.97;4.35;;;;;;;31.59;40.16;100569.38;5107189;27;70045;-31
2021/08/06 07:43:54;;;;;;;6.07;5.25;;;;;;;31.61;40.40;100559.97;5112430;27;66085;-31
2021/08/06 07:46:25;;;;;;;7.97;5.22;;;;;;;31.61;40.44;100549.13;5110892;27;68718;-31
2021/08/06 07:48:56;;;;;;;6.55;4.63;;;;;;;31.64;40.20;100539.69;5095122;27;66266;-30
2021/08/06 07:51:27;;;;;;;5.55;5.15;;;;;;;31.64;40.19;100538.88;5110491;27;70277;-32
2021/08/06 07:53:58;;;;;;;10.70;5.53;;;;;;;31.52;40.32;100520.72;5099994;27;66247;-35
2021/08/06 07:56:32;;;;;;;5.63;5.13;;;;;;;31.60;39.86;100538.53;5109467;27;69309;-31
2021/08/06 07:59:03;;;;;;;5.60;5.10;;;;;;;31.58;40.02;100544.16;5107248;27;66547;-29
2021/08/06 08:01:35;;;;;;;6.07;5.57;;;;;;;31.56;39.68;100543.56;5111175;27;69358;-30
2021/08/06 08:04:07;;;;;;;9.10;5.90;;;;;;;31.54;40.21;100545.72;5109503;27;65974;-30
2021/08/06 08:06:38;;;;;;;8.05;5.53;;;;;;;31.48;40.18;100535.81;5112028;27;70188;-30
2021/08/06 08:09:11;;;;;;;5.88;5.38;;;;;;;31.53;39.65;100533.19;5114623;27;66140;-30
2021/08/06 08:11:42;;;;;;;8.40;5.63;;;;;;;31.46;39.70;100518.94;5110765;27;70078;-33
2021/08/06 08:14:15;;;;;;;9.38;5.55;;;;;;;31.51;40.40;100518.22;5127624;27;66417;-33
2021/08/06 08:16:48;;;;;;;6.30;5.60;;;;;;;31.49;39.67;100515.75;5113203;27;70145;-32
2021/08/06 08:19:19;;;;;;;23.17;5.53;;;;;;;31.54;41.50;100517.78;5096168;27;66046;-30
2021/08/06 08:21:53;;;;;;;15.13;5.28;;;;;;;31.60;42.22;100512.22;5112742;27;44095;-31
2021/08/06 08:24:25;;;;;;;14.75;5.22;;;;;;;31.61;42.06;100503.03;5115825;27;66491;-34
2021/08/06 08:26:57;;;;;;;22.17;5.97;;;;;;;31.60;41.81;100497.84;5106615;27;69349;-32
2021/08/06 08:29:27;;;;;;;25.38;6.70;;;;;;;31.61;41.58;100489.47;5096862;27;65293;-34
2021/08/06 08:31:59;;;;;;;40.90;6.47;;;;;;;31.59;41.87;100494.31;5107206;27;69893;-32
2021/08/06 08:34:31;;;;;;;57.63;6.50;;;;;;;31.55;41.91;100481.47;5082811;27;65967;-31
2021/08/06 08:37:30;;;;;;;53.30;6.55;;;;;;;31.54;41.19;100486.06;5111284;27;69920;-30
2021/08/06 08:40:00;;;;;;;24.45;6.28;;;;;;;31.54;41.26;100488.78;5097204;27;64439;-29
2021/08/06 08:42:36;;;;;;;18.27;5.85;;;;;;;31.52;40.65;100485.47;5113764;27;70205;-30
2021/08/06 08:45:08;;;;;;;25.15;6.00;;;;;;;31.56;41.36;100489.34;5109440;27;66399;-30
2021/08/06 08:47:44;;;;;;;26.65;5.35;;;;;;;31.56;40.93;100494.75;5111489;27;69211;-30
2021/08/06 08:50:16;;;;;;;23.25;6.15;;;;;;;31.54;41.04;100483.34;5111913;27;65810;-31
2021/08/06 08:52:50;;;;;;;12.82;5.93;;;;;;;31.52;40.56;100488.19;5107593;27;69736;-30
2021/08/06 08:55:22;;;;;;;20.30;5.55;;;;;;;31.53;40.63;100495.25;5111367;27;66977;-30
2021/08/06 08:57:53;;;;;;;18.60;5.85;;;;;;;31.54;41.08;100494.19;5113757;27;70230;-30
2021/08/06 09:00:26;;;;;;;12.80;6.00;;;;;;;31.67;43.04;100495.03;5107086;27;65271;-29
2021/08/06 09:02:58;;;;;;;8.18;5.38;;;;;;;31.59;43.82;100453.66;5105422;27;70558;-29
2021/08/06 09:05:33;;;;;;;18.25;5.75;;;;;;;31.97;44.64;100484.09;5110507;27;66229;-29
2021/08/06 09:08:18;;;;;;;11.48;5.50;;;;;;;32.06;45.32;100471.81;5112550;27;69412;-31
2021/08/06 09:11:32;;;;;;;9.00;5.65;;;;;;;32.20;46.72;100467.75;5112682;27;65669;-30
2021/08/06 09:14:27;;;;;;;11.35;6.15;;;;;;;32.02;46.90;100406.34;5113241;27;70183;-31
2021/08/06 09:17:13;;;;;;;7.28;5.65;;;;;;;32.35;48.45;100445.56;5111114;27;66137;-31
2021/08/06 09:19:53;;;;;;;20.60;6.75;;;;;;;32.32;48.72;100421.63;5113331;27;69280;-30
2021/08/06 09:22:28;;;;;;;17.63;6.60;;;;;;;32.76;48.75;100497.97;5113132;27;66691;-31
2021/08/06 09:25:07;;;;;;;8.88;6.15;;;;;;;32.84;48.71;100489.44;5118008;27;69997;-34
2021/08/06 09:28:00;;;;;;;8.52;7.70;;;;;;;32.95;53.10;100490.44;5096765;27;65964;-31
2021/08/06 09:30:32;;;;;;;14.30;8.32;;;;;;;33.06;53.10;100499.63;5110299;27;70193;-31
2021/08/06 09:33:08;;;;;;;14.27;9.25;;;;;;;33.21;53.40;100505.34;5113036;27;66381;-33
2021/08/06 09:35:39;;;;;;;10.90;9.38;;;;;;;33.32;52.62;100496.31;5110962;27;70082;-32
2021/08/06 09:38:28;;;;;;;10.82;9.30;;;;;;;33.30;53.53;100482.13;5110881;27;66780;-31
2021/08/06 09:40:59;;;;;;;12.75;10.20;;;;;;;33.53;52.63;100485.78;5108466;27;70433;-32
2021/08/06 09:43:29;;;;;;;13.60;9.93;;;;;;;33.60;52.63;100483.72;5113625;27;66273;-31
2021/08/06 09:46:00;;;;;;;11.07;9.77;;;;;;;33.52;52.66;100474.09;5111013;27;70210;-31
2021/08/06 09:48:31;;;;;;;15.50;10.33;;;;;;;33.76;52.23;100501.91;5118570;27;66177;-30
2021/08/06 09:51:02;;;;;;;24.20;10.70;;;;;;;33.83;52.60;100515.34;5100900;27;69277;-33
2021/08/06 09:53:36;;;;;;;16.33;10.95;;;;;;;33.92;54.57;100532.06;5115179;27;65776;-31
2021/08/06 09:56:16;;;;;;;12.60;9.93;;;;;;;33.84;55.36;100508.81;5113478;27;70223;-32
2021/08/06 09:58:59;;;;;;;15.88;11.30;;;;;;;33.99;54.78;100532.72;5100310;27;66729;-31
2021/08/06 10:01:30;;;;;;;20.42;12.15;;;;;;;34.05;53.81;100536.38;5094924;27;69910;-31
2021/08/06 10:04:19;;;;;;;17.50;11.68;;;;;;;34.02;54.28;100534.97;5112325;27;65502;-31
2021/08/06 10:06:59;;;;;;;20.17;11.98;;;;;;;34.06;53.58;100522.50;5115834;27;70230;-31
2021/08/06 10:09:30;;;;;;;20.33;12.75;;;;;;;34.16;53.18;100532.72;5113481;27;65540;-31
2021/08/06 10:12:00;;;;;;;16.70;12.73;;;;;;;34.17;53.06;100540.63;5114595;27;69899;-31
2021/08/06 10:14:33;;;;;;;13.82;11.57;;;;;;;34.19;53.56;100543.94;5111609;27;65964;-30
2021/08/06 10:17:04;;;;;;;16.70;12.50;;;;;;;34.17;52.85;100543.34;5111419;27;70239;-31
2021/08/06 10:19:34;;;;;;;17.60;12.40;;;;;;;34.22;52.88;100540.72;5118142;27;65725;-31
2021/08/06 10:22:07;;;;;;;18.38;12.23;;;;;;;34.23;52.49;100555.97;5108767;27;70424;-31
2021/08/06 10:24:39;;;;;;;15.75;12.35;;;;;;;33.66;52.28;100457.44;5116843;27;65181;-31
2021/08/06 10:27:14;;;;;;;16.45;12.18;;;;;;;34.22;51.96;100557.03;5114539;27;69087;-32
2021/08/06 10:30:02;;;;;;;17.35;12.68;;;;;;;34.02;51.60;100538.50;5116209;27;66068;-30
2021/08/06 10:32:34;;;;;;;14.20;12.85;;;;;;;34.22;51.73;100559.75;5116778;27;70067;-34
2021/08/06 10:35:10;;;;;;;14.68;12.60;;;;;;;34.24;51.71;100560.34;5114109;27;66409;-31
2021/08/06 10:38:04;;;;;;;15.43;12.65;;;;;;;34.15;52.19;100556.38;5114691;27;69483;-32
2021/08/06 10:40:36;;;;;;;18.80;13.85;;;;;;;34.23;51.94;100566.03;5116569;27;65560;-31
2021/08/06 10:43:09;;;;;;;15.80;14.20;;;;;;;34.24;51.99;100579.41;5101632;27;69318;-30
2021/08/06 10:45:51;;;;;;;24.25;14.23;;;;;;;34.25;52.02;100580.22;5117257;27;65601;-31
2021/08/06 10:48:42;;;;;;;21.63;14.65;;;;;;;34.16;52.51;100576.28;5116400;27;69950;-31
2021/08/06 10:51:13;;;;;;;24.10;15.07;;;;;;;34.19;53.06;100573.88;5110906;27;65534;-32
2021/08/06 10:53:59;;;;;;;27.48;14.90;;;;;;;34.04;53.09;100557.28;5112939;27;70529;-31
2021/08/06 10:56:32;;;;;;;23.52;14.82;;;;;;;33.98;53.71;100574.63;5133564;27;66655;-31
2021/08/06 10:59:13;;;;;;;19.13;15.20;;;;;;;33.96;54.11;100579.47;5116819;27;70029;-30
2021/08/06 11:01:48;;;;;;;18.33;15.23;;;;;;;33.61;55.05;100547.91;5114249;27;65353;-32
2021/08/06 11:04:20;;;;;;;21.65;16.35;;;;;;;33.78;53.65;100586.81;5114729;27;70276;-34
2021/08/06 11:07:01;;;;;;;19.27;14.77;;;;;;;33.41;52.08;100553.81;5113414;27;66314;-34
2021/08/06 11:09:34;;;;;;;17.25;14.60;;;;;;;33.29;51.69;100586.50;5117123;27;69979;-31
2021/08/06 11:12:10;;;;;;;16.05;14.38;;;;;;;33.10;51.29;100587.78;5113975;27;65603;-32
2021/08/06 11:14:42;;;;;;;21.02;15.32;;;;;;;32.98;51.72;100592.38;5115585;27;69525;-30
2021/08/06 11:17:20;;;;;;;21.10;14.10;;;;;;;32.92;51.10;100597.72;5094900;27;65307;-30
2021/08/06 11:20:08;;;;;;;15.45;13.88;;;;;;;32.81;49.81;100604.00;5113753;27;70527;-31
2021/08/06 11:22:42;;;;;;;18.80;13.98;;;;;;;32.71;48.86;100604.63;5118756;27;66382;-30
2021/08/06 11:25:24;;;;;;;15.38;13.88;;;;;;;32.32;48.37;100568.19;5114084;27;70175;-32
2021/08/06 11:28:02;;;;;;;32.40;14.73;;;;;;;32.51;49.85;100608.78;5112127;27;65206;-29
2021/08/06 11:30:35;;;;;;;22.67;13.82;;;;;;;32.47;49.43;100620.13;5115717;27;69605;-30
2021/08/06 11:33:08;;;;;;;19.95;14.07;;;;;;;32.33;49.39;100607.81;5113897;27;65532;-34
2021/08/06 11:35:46;;;;;;;16.30;13.82;;;;;;;32.33;49.14;100613.25;5130614;27;70222;-32
2021/08/06 11:38:21;;;;;;;15.50;13.50;;;;;;;31.99;48.92;100561.47;5118536;27;66490;-30
2021/08/06 11:40:56;;;;;;;14.07;12.50;;;;;;;31.92;48.29;100566.16;5117528;27;70212;-30
2021/08/06 11:43:30;;;;;;;14.43;12.98;;;;;;;32.03;47.95;100625.03;5112027;27;65227;-30
2021/08/06 11:46:20;;;;;;;27.10;12.93;;;;;;;31.91;48.61;100632.34;5128543;27;70378;-31
2021/08/06 11:48:56;;;;;;;21.90;11.95;;;;;;;31.87;49.16;100609.41;5112357;27;65048;-32
2021/08/06 11:51:26;;;;;;;26.63;12.07;;;;;;;32.09;48.65;100636.00;5113855;27;70055;-33
2021/08/06 11:54:08;;;;;;;18.02;11.63;;;;;;;31.72;48.14;100565.66;5114929;27;65924;-32
2021/08/06 11:56:38;;;;;;;26.90;11.82;;;;;;;32.12;47.96;100644.50;5093095;27;70052;-32
2021/08/06 11:59:10;;;;;;;17.52;12.18;;;;;;;32.15;46.98;100648.63;5097264;27;66179;-33